Facebook Twitter

Wetterstation Ried i.Innkreis

aktuelles Wetter
  Temperatur Wetter Niederschlag Luftdruck Wind
Mo, 01:00 Uhr 19° - 0 mm 1016.7 hPa 0 km/h
Mo, 00:00 Uhr 20° - 0 mm 1016.7 hPa 0 km/h
So, 23:00 Uhr 21° - 0 mm 1016.6 hPa 4 km/h S
So, 22:00 Uhr 23° - 0 mm 1016.5 hPa 4 km/h S
So, 21:00 Uhr 25° - 0 mm 1015.7 hPa 0 km/h S
So, 20:00 Uhr 28° - 0 mm 1015.3 hPa 4 km/h NW
So, 19:00 Uhr 29° - 0 mm 1015.4 hPa 4 km/h NW
So, 18:00 Uhr 29° - 0 mm 1015.6 hPa 4 km/h N
So, 17:00 Uhr 29° - 0 mm 1016.1 hPa 4 km/h NW
So, 16:00 Uhr 28° - 0 mm 1016.6 hPa 4 km/h NW
So, 15:00 Uhr 28° - 0 mm 1017 hPa 4 km/h NW
So, 14:00 Uhr 27° - 0 mm 1017.5 hPa 4 km/h NW
So, 13:00 Uhr 26° - 0 mm 1018.3 hPa 4 km/h W
So, 12:00 Uhr 25° - 0 mm 1018.7 hPa 4 km/h W
So, 11:00 Uhr 24° - 0 mm 1019 hPa 4 km/h NW
So, 10:00 Uhr 22° - 0 mm 1019.3 hPa 4 km/h NW
So, 09:00 Uhr 20° - 0 mm 1019.8 hPa 4 km/h N
So, 08:00 Uhr 18° - 0.1 mm 1020.1 hPa 0 km/h N
So, 07:00 Uhr 16° - 0 mm 1020.2 hPa 4 km/h S
So, 06:00 Uhr 14° - 0 mm 1020.1 hPa 0 km/h S

Alle Zeitangaben MESZ